Time;durP1;ratioP1;P1;durP2;ratioP2;P2;SDS_P1;SDS_P2;PMS_P1;PMS_P2;Temp;Humidity;BMP_temperature;BMP_pressure;BME280_temperature;BME280_humidity;BME280_pressure;Samples;Min_cycle;Max_cycle;Signal;HPM_P1;HPM_P2
2022/03/21 00:00:27;;;;;;;35.60;16.40;;;;;;;2.49;39.90;102792.16;5357566;32;35228;-70
2022/03/21 00:03:30;;;;;;;29.77;15.07;;;;;;;2.80;39.03;102795.75;5373050;32;44305;-83
2022/03/21 00:06:32;;;;;;;31.77;15.33;;;;;;;2.60;39.71;102801.19;5367492;32;36975;-76
2022/03/21 00:09:35;;;;;;;31.60;14.30;;;;;;;2.40;40.30;102797.06;5340106;32;34126;-71
2022/03/21 00:12:39;;;;;;;30.07;15.13;;;;;;;2.93;39.16;102797.88;5366756;32;34551;-70
2022/03/21 00:15:43;;;;;;;34.73;14.90;;;;;;;3.67;37.47;102786.19;5348158;32;34864;-70
2022/03/21 00:18:45;;;;;;;30.77;14.98;;;;;;;3.40;37.71;102791.47;5348423;32;34153;-82
2022/03/21 00:21:48;;;;;;;32.17;15.43;;;;;;;2.80;39.46;102790.56;5344580;32;34297;-83
2022/03/21 00:24:50;;;;;;;32.60;15.60;;;;;;;2.43;40.53;102797.16;5372023;32;34099;-77
2022/03/21 00:27:53;;;;;;;29.50;15.03;;;;;;;3.55;38.23;102788.47;5353810;32;36777;-77
2022/03/21 00:30:56;;;;;;;32.97;15.83;;;;;;;3.46;38.29;102785.59;5353710;32;35819;-71
2022/03/21 00:33:58;;;;;;;35.10;15.73;;;;;;;2.39;40.72;102792.72;5377229;32;44612;-83
2022/03/21 00:37:00;;;;;;;30.70;15.17;;;;;;;2.50;40.72;102787.84;5366626;32;34444;-83
2022/03/21 00:40:05;;;;;;;29.77;15.27;;;;;;;2.57;40.77;102788.09;5374838;32;34647;-79
2022/03/21 00:43:08;;;;;;;29.10;14.53;;;;;;;2.89;40.06;102781.31;5339965;32;35158;-69
2022/03/21 00:46:11;;;;;;;29.63;14.40;;;;;;;2.69;40.63;102780.69;5345815;32;35372;-70
2022/03/21 00:49:14;;;;;;;28.55;14.15;;;;;;;2.74;40.04;102782.56;5366143;32;35362;-84
2022/03/21 00:52:16;;;;;;;27.33;14.43;;;;;;;3.15;38.91;102776.00;5341319;32;34738;-70
2022/03/21 00:55:19;;;;;;;31.33;14.57;;;;;;;2.29;40.35;102786.31;5380316;32;33638;-83
2022/03/21 00:58:22;;;;;;;27.67;13.95;;;;;;;2.28;40.32;102779.37;5349290;32;35272;-83
2022/03/21 01:01:24;;;;;;;28.47;13.43;;;;;;;2.35;40.72;102783.94;5368765;32;34595;-76
2022/03/21 01:04:27;;;;;;;29.87;14.40;;;;;;;2.26;40.70;102786.25;5352296;32;35086;-70
2022/03/21 01:07:30;;;;;;;28.87;13.60;;;;;;;2.99;39.09;102772.09;5364892;32;34801;-82
2022/03/21 01:10:33;;;;;;;29.47;15.07;;;;;;;2.71;39.93;102771.25;5366080;32;35183;-76
2022/03/21 01:13:41;;;;;;;29.45;13.85;;;;;;;2.29;41.25;102780.25;5351202;32;34324;-78
2022/03/21 01:16:44;;;;;;;28.37;13.13;;;;;;;2.62;40.72;102775.25;5366346;32;33980;-82
2022/03/21 01:19:46;;;;;;;27.80;13.30;;;;;;;3.17;39.28;102770.03;5351877;32;36116;-82
2022/03/21 01:22:49;;;;;;;28.40;13.97;;;;;;;2.99;39.52;102772.09;5368632;32;34548;-83
2022/03/21 01:25:52;;;;;;;25.37;13.75;;;;;;;2.02;41.79;102773.31;5355566;32;34632;-70
2022/03/21 01:28:54;;;;;;;28.77;14.73;;;;;;;2.41;41.25;102767.69;5361819;32;35507;-70
2022/03/21 01:31:56;;;;;;;25.63;13.60;;;;;;;1.42;43.74;102777.22;5381408;32;34474;-82
2022/03/21 01:34:58;;;;;;;30.23;13.30;;;;;;;1.31;43.85;102771.66;5341713;32;44916;-81
2022/03/21 01:38:01;;;;;;;26.30;13.07;;;;;;;1.40;44.00;102776.28;5367430;32;34935;-69
2022/03/21 01:41:03;;;;;;;25.13;12.83;;;;;;;1.84;42.94;102770.09;5356042;32;35006;-69
2022/03/21 01:44:08;;;;;;;27.83;13.17;;;;;;;1.45;43.30;102767.84;5328873;32;34182;-70
2022/03/21 01:47:10;;;;;;;27.00;13.33;;;;;;;1.67;42.74;102766.91;5368308;32;34461;-70
2022/03/21 01:50:14;;;;;;;30.73;14.00;;;;;;;1.79;42.77;102761.25;5350654;32;33376;-82
2022/03/21 01:56:39;;;;;;;30.97;13.70;;;;;;;1.95;42.56;102760.97;5364201;32;34909;-71
2022/03/21 01:59:41;;;;;;;31.20;15.35;;;;;;;1.73;42.66;102751.56;5377651;32;34415;-70
2022/03/21 02:02:43;;;;;;;28.03;14.70;;;;;;;1.51;43.65;102755.13;5365737;32;35291;-70
2022/03/21 02:05:49;;;;;;;25.83;14.03;;;;;;;1.18;44.46;102756.50;5358999;32;35271;-71
2022/03/21 02:08:51;;;;;;;24.97;12.40;;;;;;;1.24;44.10;102747.22;5349751;32;34978;-83
2022/03/21 02:11:54;;;;;;;28.87;13.40;;;;;;;2.21;41.00;102753.19;5351817;32;35616;-76
2022/03/21 02:14:57;;;;;;;27.95;13.50;;;;;;;2.12;41.29;102751.16;5364523;32;33097;-82
2022/03/21 02:18:01;;;;;;;31.13;14.10;;;;;;;1.68;42.73;102750.53;5356466;32;34672;-69
2022/03/21 02:21:03;;;;;;;;;;;;;;;1.82;41.77;102754.50;5377288;32;34603;-83
2022/03/21 02:24:09;;;;;;;27.20;13.30;;;;;;;1.53;42.83;102755.16;5366258;32;36515;-70
2022/03/21 02:27:13;;;;;;;27.80;13.43;;;;;;;1.90;41.87;102754.75;5365320;32;33957;-83
2022/03/21 02:30:15;;;;;;;25.92;14.13;;;;;;;1.72;42.38;102746.31;5368864;32;34131;-77
2022/03/21 02:33:18;;;;;;;27.43;13.87;;;;;;;1.91;42.04;102746.13;5361276;32;35423;-82
2022/03/21 02:36:21;;;;;;;28.33;14.47;;;;;;;1.86;42.57;102743.38;5383399;32;34357;-83
2022/03/21 02:39:23;;;;;;;29.97;13.90;;;;;;;1.28;44.21;102746.50;5366369;32;34914;-69
2022/03/21 02:42:25;;;;;;;27.67;13.73;;;;;;;1.31;45.43;102756.13;5360031;32;34266;-83
2022/03/21 02:45:27;;;;;;;26.93;14.87;;;;;;;1.07;46.17;102745.72;5347953;32;44745;-70
2022/03/21 02:48:30;;;;;;;33.80;14.40;;;;;;;1.01;46.59;102740.31;5348801;32;34824;-83
2022/03/21 02:51:37;;;;;;;27.97;13.97;;;;;;;0.70;47.53;102754.66;5356094;32;34781;-77
2022/03/21 02:54:39;;;;;;;24.93;13.33;;;;;;;0.84;46.93;102754.31;5366128;32;33127;-69
2022/03/21 02:57:41;;;;;;;30.07;14.20;;;;;;;1.63;44.85;102755.56;5373444;32;34291;-70
2022/03/21 03:00:44;;;;;;;27.37;13.67;;;;;;;1.56;45.14;102750.09;5341599;32;35187;-77
2022/03/21 03:03:46;;;;;;;27.53;13.70;;;;;;;2.00;43.68;102746.47;5349795;32;34119;-83
2022/03/21 03:06:49;;;;;;;30.00;14.30;;;;;;;1.20;45.74;102752.22;5371312;32;34455;-83
2022/03/21 03:09:51;;;;;;;33.80;13.73;;;;;;;1.14;45.36;102758.06;5358634;32;36159;-69
2022/03/21 03:12:53;;;;;;;29.57;13.70;;;;;;;1.64;44.46;102748.66;5370968;32;34445;-78
2022/03/21 03:15:56;;;;;;;26.33;13.17;;;;;;;0.96;45.31;102757.38;5346130;32;34630;-82
2022/03/21 03:18:58;;;;;;;28.27;13.40;;;;;;;1.64;44.12;102751.25;5348960;32;44441;-70
2022/03/21 03:22:00;;;;;;;26.30;13.40;;;;;;;1.96;43.27;102757.53;5351367;32;34824;-83
2022/03/21 03:25:04;;;;;;;27.23;13.43;;;;;;;1.25;44.73;102755.87;5363316;32;34164;-77
2022/03/21 03:28:06;;;;;;;27.42;12.75;;;;;;;0.94;44.97;102751.25;5367605;32;34529;-70
2022/03/21 03:31:09;;;;;;;33.33;13.53;;;;;;;0.80;45.58;102751.63;5362075;32;34200;-83
2022/03/21 03:34:11;;;;;;;28.80;13.07;;;;;;;1.81;43.11;102749.25;5366720;32;34296;-69
2022/03/21 03:37:15;;;;;;;25.20;12.73;;;;;;;2.31;42.02;102752.63;5338220;32;32937;-83
2022/03/21 03:40:18;;;;;;;28.00;12.73;;;;;;;1.12;44.80;102756.25;5374408;32;34450;-82
2022/03/21 03:43:20;;;;;;;26.87;12.82;;;;;;;2.16;43.12;102748.72;5347606;32;34252;-84
2022/03/21 03:46:23;;;;;;;26.37;12.30;;;;;;;1.41;44.30;102749.53;5361638;32;34635;-84
2022/03/21 03:49:26;;;;;;;23.83;12.33;;;;;;;1.96;42.65;102756.66;5359660;32;33453;-82
2022/03/21 03:52:29;;;;;;;26.53;12.50;;;;;;;1.52;44.05;102762.06;5351270;32;43321;-69
2022/03/21 03:55:31;;;;;;;29.13;13.03;;;;;;;2.15;42.57;102756.44;5374296;32;34906;-83
2022/03/21 03:58:34;;;;;;;26.37;11.77;;;;;;;1.68;43.97;102760.91;5334093;32;34269;-69
2022/03/21 04:01:38;;;;;;;26.83;12.60;;;;;;;1.69;43.48;102760.06;5367458;32;35093;-83
2022/03/21 04:04:40;;;;;;;22.80;12.00;;;;;;;1.04;45.17;102764.63;5357431;32;35255;-70
2022/03/21 04:07:42;;;;;;;24.50;12.70;;;;;;;1.69;43.96;102759.19;5353503;32;34667;-76
2022/03/21 04:10:45;;;;;;;24.27;11.50;;;;;;;1.50;43.93;102761.13;5365153;32;35580;-85
2022/03/21 04:13:47;;;;;;;24.27;11.37;;;;;;;1.11;44.83;102767.44;5348375;32;34621;-82
2022/03/21 04:16:50;;;;;;;24.70;11.67;;;;;;;1.82;43.03;102759.66;5349964;32;36702;-68
2022/03/21 04:19:52;;;;;;;21.30;11.23;;;;;;;1.96;43.12;102767.91;5349770;32;34965;-83
2022/03/21 04:22:55;;;;;;;26.20;12.30;;;;;;;1.22;44.62;102766.13;5353086;32;35022;-69
2022/03/21 04:25:58;;;;;;;23.97;11.83;;;;;;;1.27;44.63;102757.69;5359662;32;36592;-70
2022/03/21 04:29:04;;;;;;;24.40;12.07;;;;;;;1.24;44.50;102765.37;5351822;32;34143;-83
2022/03/21 04:32:06;;;;;;;24.20;11.30;;;;;;;1.53;43.91;102766.41;5377575;32;33345;-77
2022/03/21 04:35:10;;;;;;;23.23;12.07;;;;;;;2.19;42.16;102763.53;5339189;32;34353;-84
2022/03/21 04:38:13;;;;;;;31.00;11.88;;;;;;;1.71;42.78;102778.28;5365783;32;34853;-69
2022/03/21 04:41:15;;;;;;;25.27;11.47;;;;;;;0.88;44.93;102775.22;5360866;32;35079;-70
2022/03/21 04:44:17;;;;;;;22.03;11.07;;;;;;;2.40;41.61;102772.00;5332812;32;34811;-83
2022/03/21 04:47:21;;;;;;;25.00;11.57;;;;;;;1.74;42.15;102768.91;5353041;32;34211;-69
2022/03/21 04:50:23;;;;;;;26.02;11.88;;;;;;;0.96;43.77;102773.78;5361825;32;35714;-69
2022/03/21 04:53:25;;;;;;;22.13;10.50;;;;;;;1.89;42.28;102773.72;5373369;32;35330;-83
2022/03/21 04:56:27;;;;;;;23.10;11.17;;;;;;;2.08;41.18;102773.53;5347045;32;43443;-83
2022/03/21 04:59:30;;;;;;;23.50;11.17;;;;;;;1.18;43.49;102785.84;5354966;32;34889;-84
2022/03/21 05:02:32;;;;;;;30.33;12.07;;;;;;;1.62;42.64;102784.03;5350716;32;35512;-69
2022/03/21 05:05:35;;;;;;;30.30;11.93;;;;;;;1.35;42.61;102781.28;5377270;32;34699;-77
2022/03/21 05:08:38;;;;;;;24.57;10.87;;;;;;;2.08;41.17;102789.09;5364702;32;35639;-70
2022/03/21 05:11:40;;;;;;;28.20;11.13;;;;;;;1.77;40.50;102784.56;5354861;32;34776;-84
2022/03/21 05:14:42;;;;;;;23.23;10.67;;;;;;;1.49;41.43;102793.06;5375315;32;34871;-70
2022/03/21 05:17:45;;;;;;;21.67;10.37;;;;;;;1.99;40.03;102790.47;5360357;32;33496;-83
2022/03/21 05:20:48;;;;;;;23.43;11.47;;;;;;;1.30;41.15;102786.31;5370290;32;35649;-71
2022/03/21 05:37:13;;;;;;;22.93;10.53;;;;;;;3.28;37.72;102788.53;5367686;32;35175;-83
2022/03/21 05:43:36;;;;;;;35.80;10.97;;;;;;;4.20;35.68;102788.44;5323774;32;44629;-70
2022/03/21 05:46:39;;;;;;;21.37;9.87;;;;;;;4.87;35.04;102777.03;5364416;32;35602;-70
2022/03/21 05:49:41;;;;;;;22.67;10.73;;;;;;;3.42;36.85;102802.81;5366629;32;34456;-83
2022/03/21 05:52:44;;;;;;;25.60;11.43;;;;;;;4.63;34.00;102786.03;5367090;32;34717;-78
2022/03/21 05:55:46;;;;;;;29.37;11.63;;;;;;;4.42;35.24;102800.28;5363568;32;34262;-84
2022/03/21 05:58:48;;;;;;;22.53;11.23;;;;;;;6.57;31.05;102778.56;5368157;32;34349;-69
2022/03/21 06:01:51;;;;;;;23.20;11.30;;;;;;;5.94;32.36;102789.69;5362700;32;34443;-70
2022/03/21 06:04:54;;;;;;;21.25;11.43;;;;;;;5.19;32.81;102797.69;5359349;32;37392;-69
2022/03/21 06:07:56;;;;;;;27.47;11.73;;;;;;;6.40;31.94;102783.50;5368564;32;34206;-70
2022/03/21 06:11:05;;;;;;;23.23;11.93;;;;;;;5.71;32.73;102800.53;5365374;32;44991;-85
2022/03/21 06:14:08;;;;;;;19.53;11.57;;;;;;;7.94;29.64;102787.28;5350550;32;34219;-70
2022/03/21 06:17:11;;;;;;;27.13;11.95;;;;;;;5.69;32.90;102814.41;5346929;32;34245;-69
2022/03/21 06:20:15;;;;;;;26.37;11.93;;;;;;;7.80;29.44;102792.37;5363201;32;34787;-86
2022/03/21 06:23:18;;;;;;;20.33;11.10;;;;;;;7.48;29.97;102797.25;5362306;32;34473;-85
2022/03/21 06:26:20;;;;;;;21.90;11.40;;;;;;;8.06;28.00;102807.47;5340460;32;33000;-69
2022/03/21 06:29:22;;;;;;;24.10;10.80;;;;;;;7.33;29.14;102805.78;5346442;32;33950;-70
2022/03/21 06:32:25;;;;;;;24.60;11.53;;;;;;;8.58;27.34;102807.97;5360848;32;36135;-79
2022/03/21 06:35:27;;;;;;;19.70;11.13;;;;;;;7.08;28.97;102814.13;5362755;32;45941;-78
2022/03/21 06:38:30;;;;;;;26.43;11.60;;;;;;;9.30;25.88;102803.16;5350782;32;34681;-69
2022/03/21 06:41:32;;;;;;;29.37;12.73;;;;;;;7.80;27.87;102810.72;5362356;32;34519;-66
2022/03/21 06:44:35;;;;;;;21.13;11.87;;;;;;;9.19;26.39;102801.34;5352857;32;36695;-76
2022/03/21 06:47:37;;;;;;;21.73;11.03;;;;;;;10.91;23.58;102799.00;5359429;32;34155;-65
2022/03/21 06:50:40;;;;;;;26.43;11.93;;;;;;;10.65;23.80;102799.94;5367379;32;35154;-73
2022/03/21 06:53:42;;;;;;;24.75;12.50;;;;;;;10.67;23.33;102792.91;5334058;32;36880;-78
2022/03/21 06:56:44;;;;;;;32.43;17.30;;;;;;;11.05;23.36;102800.72;5374693;32;33777;-65
2022/03/21 06:59:47;;;;;;;29.20;14.17;;;;;;;10.79;23.40;102811.31;5349365;32;34122;-65
2022/03/21 07:02:49;;;;;;;26.87;12.82;;;;;;;11.12;22.75;102805.09;5357339;32;35614;-78
2022/03/21 07:05:52;;;;;;;25.27;13.60;;;;;;;11.61;22.35;102799.63;5361322;32;34633;-64
2022/03/21 07:08:54;;;;;;;30.27;14.40;;;;;;;9.94;24.38;102821.75;5346511;32;35627;-73
2022/03/21 07:11:57;;;;;;;26.37;14.23;;;;;;;12.77;21.49;102811.12;5356237;32;42397;-70
2022/03/21 07:14:59;;;;;;;26.20;14.45;;;;;;;11.23;22.62;102809.44;5348518;32;35775;-64
2022/03/21 07:18:04;;;;;;;25.17;13.90;;;;;;;11.88;22.12;102803.03;5369105;32;34300;-78
2022/03/21 07:21:06;;;;;;;26.85;14.32;;;;;;;12.98;20.96;102791.53;5354731;32;36155;-69
2022/03/21 07:24:09;;;;;;;25.52;13.90;;;;;;;13.31;20.47;102795.59;5364401;32;34025;-80
2022/03/21 07:27:14;;;;;;;24.87;14.05;;;;;;;13.65;20.09;102798.66;5367812;32;32729;-71
2022/03/21 07:30:20;;;;;;;26.53;15.23;;;;;;;10.39;23.15;102817.47;5359727;32;35059;-69
2022/03/21 07:33:24;;;;;;;;;;;;;;;12.97;20.35;102805.63;5371887;32;33642;-70
2022/03/21 07:36:26;;;;;;;24.58;13.07;;;;;;;12.25;20.73;102822.13;5365459;32;32831;-70
2022/03/21 07:39:29;;;;;;;30.65;14.25;;;;;;;13.27;19.32;102813.25;5365770;32;46145;-66
2022/03/21 07:42:33;;;;;;;23.27;13.77;;;;;;;11.99;21.77;102819.66;5336680;32;34650;-67
2022/03/21 07:48:56;;;;;;;22.03;13.47;;;;;;;12.85;20.29;102819.81;5373687;32;35391;-68
2022/03/21 07:51:58;;;;;;;34.23;15.27;;;;;;;13.40;19.91;102813.97;5354950;32;44737;-69
2022/03/21 07:55:00;;;;;;;22.67;13.57;;;;;;;12.77;20.00;102821.66;5378046;32;34192;-68
2022/03/21 07:58:05;;;;;;;28.07;15.10;;;;;;;13.57;19.61;102813.75;5350581;32;34153;-68
2022/03/21 08:01:07;;;;;;;24.27;13.35;;;;;;;15.67;17.80;102803.94;5334835;32;35791;-68
2022/03/21 08:04:09;;;;;;;27.98;13.75;;;;;;;14.84;17.79;102814.44;5336993;32;35493;-67
2022/03/21 08:07:13;;;;;;;27.75;14.60;;;;;;;12.74;20.74;102816.41;5346861;32;32812;-76
2022/03/21 08:10:16;;;;;;;;;;;;;;;15.44;17.93;102811.47;5375903;32;35320;-76
2022/03/21 08:13:23;;;;;;;26.13;14.03;;;;;;;13.41;19.76;102818.34;5363054;32;34419;-76
2022/03/21 08:16:25;;;;;;;29.20;17.30;;;;;;;13.93;19.40;102811.50;5354659;32;32800;-75
2022/03/21 08:19:29;;;;;;;28.20;13.85;;;;;;;9.82;23.86;102826.97;5354631;32;43941;-76
2022/03/21 08:22:31;;;;;;;27.65;14.43;;;;;;;10.37;23.75;102829.72;5357905;32;34184;-76
2022/03/21 08:25:36;;;;;;;21.58;13.35;;;;;;;9.65;24.73;102822.53;5360363;32;34712;-77
2022/03/21 08:28:38;;;;;;;25.83;12.73;;;;;;;9.13;25.47;102821.44;5345384;32;34260;-76
2022/03/21 08:31:41;;;;;;;29.47;14.53;;;;;;;9.44;24.77;102815.47;5375951;32;34588;-74
2022/03/21 08:34:44;;;;;;;21.27;11.43;;;;;;;9.49;24.72;102818.12;5354018;32;35876;-76
2022/03/21 08:37:47;;;;;;;23.00;11.53;;;;;;;10.51;23.35;102807.84;5355326;32;35225;-75
2022/03/21 08:40:50;;;;;;;24.47;13.23;;;;;;;10.46;23.33;102809.59;5368803;32;35326;-65
2022/03/21 08:43:53;;;;;;;25.90;14.17;;;;;;;9.44;24.85;102807.59;5342924;32;34343;-75
2022/03/21 08:46:55;;;;;;;24.13;11.93;;;;;;;9.10;24.89;102798.69;5369082;32;34737;-67
2022/03/21 08:49:59;;;;;;;25.60;12.50;;;;;;;9.08;25.04;102808.31;5353892;32;43227;-75
2022/03/21 08:53:02;;;;;;;22.70;12.70;;;;;;;9.19;24.98;102798.72;5369147;32;34211;-75
2022/03/21 08:56:04;;;;;;;26.93;12.23;;;;;;;9.46;24.92;102797.09;5359917;32;34410;-76
2022/03/21 08:59:07;;;;;;;27.30;12.35;;;;;;;9.02;25.31;102796.91;5337454;32;34155;-75
2022/03/21 09:02:10;;;;;;;24.77;13.10;;;;;;;10.33;23.28;102794.69;5369639;32;34004;-75
2022/03/21 09:05:14;;;;;;;22.67;12.48;;;;;;;9.90;23.79;102788.47;5349354;32;34014;-75
2022/03/21 09:08:17;;;;;;;23.67;12.57;;;;;;;11.27;21.87;102779.59;5354982;32;35180;-76
2022/03/21 09:11:20;;;;;;;24.30;12.37;;;;;;;11.69;22.02;102778.50;5358280;32;35692;-76
2022/03/21 09:14:22;;;;;;;25.00;12.17;;;;;;;12.34;20.60;102760.50;5369752;32;34035;-74
2022/03/21 09:17:26;;;;;;;23.53;12.10;;;;;;;10.66;22.58;102774.50;5360128;32;33225;-72
2022/03/21 09:20:30;;;;;;;21.67;11.73;;;;;;;12.06;21.13;102765.13;5361362;32;43164;-73
2022/03/21 09:23:33;;;;;;;21.53;11.97;;;;;;;13.03;19.62;102758.03;5372660;32;33356;-73
2022/03/21 09:26:35;;;;;;;23.13;13.03;;;;;;;14.15;18.47;102756.50;5353636;32;34255;-73
2022/03/21 09:29:43;;;;;;;21.33;12.63;;;;;;;16.10;17.19;102738.41;5360116;32;34788;-73
2022/03/21 09:32:45;;;;;;;23.60;11.53;;;;;;;16.98;15.73;102738.72;5359124;32;34408;-74
2022/03/21 09:35:48;;;;;;;18.33;11.20;;;;;;;17.81;14.85;102736.22;5373354;32;33921;-73
2022/03/21 09:38:52;;;;;;;21.13;11.10;;;;;;;16.55;14.54;102740.78;5352757;32;36199;-71
2022/03/21 09:41:55;;;;;;;21.75;10.90;;;;;;;17.72;13.66;102737.41;5357343;32;34865;-72
2022/03/21 09:44:57;;;;;;;20.12;10.95;;;;;;;19.88;12.52;102727.78;5351182;32;34596;-71
2022/03/21 09:48:12;;;;;;;18.05;10.90;;;;;;;22.67;10.42;102716.44;5363942;32;35521;-74
2022/03/21 09:51:20;;;;;;;20.83;11.10;;;;;;;17.90;13.34;102732.41;5375125;32;33718;-75
2022/03/21 09:54:27;;;;;;;19.40;11.18;;;;;;;18.02;13.75;102735.53;5355535;32;43847;-73
2022/03/21 09:57:30;;;;;;;18.05;11.57;;;;;;;19.34;12.50;102734.38;5364591;32;34057;-74
2022/03/21 10:00:35;;;;;;;;;;;;;;;19.08;12.85;102727.38;5353377;32;35447;-74
2022/03/21 10:03:38;;;;;;;20.02;11.48;;;;;;;18.61;12.92;102721.06;5362561;32;35078;-75
2022/03/21 10:06:41;;;;;;;17.45;10.48;;;;;;;18.58;12.84;102719.41;5378309;32;34149;-75
2022/03/21 10:10:07;;;;;;;17.42;10.50;;;;;;;19.15;12.56;102712.00;5364658;32;35015;-73
2022/03/21 10:13:10;;;;;;;22.67;11.32;;;;;;;18.00;12.89;102710.75;5371278;32;35272;-73
2022/03/21 10:16:13;;;;;;;;;;;;;;;21.07;11.00;102698.53;5368556;32;34412;-74
2022/03/21 10:19:16;;;;;;;18.50;10.77;;;;;;;21.78;10.24;102689.81;5358339;32;35388;-73
2022/03/21 10:22:23;;;;;;;15.23;10.13;;;;;;;23.67;9.37;102686.81;5374241;32;34935;-71
2022/03/21 10:25:27;;;;;;;15.50;11.10;;;;;;;20.64;11.26;102688.06;5336052;32;35614;-70
2022/03/21 10:28:36;;;;;;;14.75;9.98;;;;;;;23.75;9.31;102674.66;5368741;32;46038;-69
2022/03/21 10:31:40;;;;;;;15.07;9.93;;;;;;;24.44;8.88;102675.06;5365352;32;35265;-70
2022/03/21 10:34:43;;;;;;;15.68;10.07;;;;;;;21.39;10.27;102693.50;5360820;32;35329;-70
2022/03/21 10:37:50;;;;;;;14.00;9.13;;;;;;;20.43;11.18;102681.84;5377826;32;35230;-71
2022/03/21 10:40:52;;;;;;;15.13;10.60;;;;;;;22.76;9.57;102671.34;5347299;32;34083;-67
2022/03/21 10:43:55;;;;;;;16.92;10.82;;;;;;;23.23;9.25;102666.03;5354916;32;36191;-67
2022/03/21 10:47:00;;;;;;;16.80;10.07;;;;;;;23.06;9.21;102661.63;5359899;32;44428;-68
2022/03/21 10:50:03;;;;;;;16.45;9.85;;;;;;;21.29;10.40;102662.78;5371734;32;34144;-67
2022/03/21 10:53:16;;;;;;;20.42;10.45;;;;;;;21.41;10.33;102654.16;5363022;32;34050;-66
2022/03/21 10:56:19;;;;;;;16.67;10.63;;;;;;;17.66;13.21;102655.12;5352210;32;194429;-67
2022/03/21 10:59:24;;;;;;;16.33;9.95;;;;;;;16.97;13.86;102662.59;5368944;32;34007;-67
2022/03/21 11:02:26;;;;;;;15.27;10.60;;;;;;;17.67;13.29;102648.88;5348694;32;35392;-69
2022/03/21 11:05:30;;;;;;;16.23;10.68;;;;;;;17.94;12.99;102655.09;5368783;32;44509;-71
2022/03/21 11:08:33;;;;;;;16.83;10.10;;;;;;;16.50;13.65;102648.00;5346465;32;34351;-72
2022/03/21 11:11:36;;;;;;;15.52;9.80;;;;;;;15.64;14.20;102652.03;5370259;32;35135;-72
2022/03/21 11:14:40;;;;;;;21.30;10.98;;;;;;;15.15;15.33;102656.66;5360771;32;35547;-67
2022/03/21 11:17:43;;;;;;;18.40;9.70;;;;;;;15.48;15.26;102650.63;5355723;32;34004;-67
2022/03/21 11:20:46;;;;;;;18.13;9.90;;;;;;;15.52;14.85;102645.22;5362311;32;36491;-66
2022/03/21 11:23:49;;;;;;;;;;;;;;;15.69;14.97;102635.09;5354630;32;33502;-66
2022/03/21 11:27:14;;;;;;;15.87;9.40;;;;;;;15.13;15.07;102629.34;5371611;32;36126;-64
2022/03/21 11:30:29;;;;;;;15.48;9.80;;;;;;;16.92;13.85;102619.34;5323595;32;35340;-66
2022/03/21 11:33:41;;;;;;;;;;;;;;;16.92;13.97;102624.66;5360907;32;46001;-68
2022/03/21 11:36:51;;;;;;;14.15;8.82;;;;;;;17.03;13.86;102608.41;5372382;32;34851;-67
2022/03/21 11:40:27;;;;;;;15.50;8.02;;;;;;;18.77;12.35;102602.44;5362998;32;34072;-68
2022/03/21 11:43:30;;;;;;;12.90;7.85;;;;;;;18.46;12.10;102600.00;5349969;32;35288;-67
2022/03/21 11:46:34;;;;;;;14.63;8.50;;;;;;;18.14;12.69;102602.06;5371972;32;35813;-68
2022/03/21 11:49:36;;;;;;;14.27;8.38;;;;;;;17.45;12.67;102594.66;5363685;32;34265;-65
2022/03/21 11:53:07;;;;;;;16.87;8.47;;;;;;;17.62;12.82;102596.78;5372299;32;34030;-66
2022/03/21 11:56:14;;;;;;;16.48;8.70;;;;;;;18.80;11.83;102585.44;5353954;32;34340;-66
2022/03/21 11:59:34;;;;;;;15.77;7.87;;;;;;;19.19;11.69;102578.56;5365785;32;35293;-72
2022/03/21 12:02:36;;;;;;;15.00;9.07;;;;;;;19.70;11.11;102571.12;5370170;32;44385;-66
2022/03/21 12:05:40;;;;;;;13.27;8.25;;;;;;;16.33;13.62;102582.13;5364774;32;34104;-69
2022/03/21 12:09:01;;;;;;;18.00;8.48;;;;;;;19.99;10.95;102557.41;5358758;32;36015;-66
2022/03/21 12:12:04;;;;;;;16.12;8.05;;;;;;;17.74;12.32;102561.81;5355876;32;44330;-82
2022/03/21 12:15:17;;;;;;;15.05;8.48;;;;;;;17.96;12.31;102561.91;5377869;32;35058;-65
2022/03/21 12:18:34;;;;;;;;;;;;;;;18.42;12.08;102553.16;5360709;32;34047;-66
2022/03/21 12:21:36;;;;;;;17.33;8.85;;;;;;;20.33;10.63;102530.97;5358445;32;44520;-67
2022/03/21 12:24:49;;;;;;;17.05;8.07;;;;;;;19.62;11.25;102535.91;5354799;32;34220;-91
2022/03/21 12:27:52;;;;;;;;;;;;;;;21.01;10.39;102525.06;5373113;32;37298;-87
2022/03/21 12:30:54;;;;;;;13.15;7.80;;;;;;;20.31;10.72;102523.03;5380949;32;34890;-83
2022/03/21 12:34:34;;;;;;;17.45;8.65;;;;;;;18.74;11.69;102521.75;5371982;32;36457;-67
2022/03/21 12:37:38;;;;;;;16.23;8.45;;;;;;;19.26;11.43;102506.34;5363902;32;37501;-72
2022/03/21 12:40:46;;;;;;;13.70;7.80;;;;;;;21.53;10.11;102503.72;5378756;32;34134;-65
2022/03/21 12:43:52;;;;;;;13.88;8.25;;;;;;;19.61;11.33;102503.03;5349529;32;33982;-84
2022/03/21 12:46:57;;;;;;;16.40;9.20;;;;;;;19.76;11.19;102504.16;5368911;32;35420;-70
2022/03/21 12:50:00;;;;;;;17.00;8.90;;;;;;;20.10;10.89;102506.22;5357597;32;44359;-66
2022/03/21 12:53:10;;;;;;;13.48;8.05;;;;;;;20.94;10.70;102496.03;5351349;32;34274;-67
2022/03/21 12:56:17;;;;;;;13.70;8.48;;;;;;;22.91;9.34;102485.50;5363253;32;35382;-68
2022/03/21 12:59:21;;;;;;;15.85;8.68;;;;;;;22.43;9.49;102490.00;5349473;32;35666;-65
2022/03/21 13:02:28;;;;;;;15.10;8.90;;;;;;;21.81;9.63;102496.94;5365603;32;34099;-63
2022/03/21 13:10:32;;;;;;;19.37;9.38;;;;;;;20.34;10.51;102488.16;5361895;32;44291;-67
2022/03/21 13:12:20;;;;;;;14.60;9.20;;;;;;;20.30;10.13;102489.25;5374868;32;34198;-68
2022/03/21 13:15:23;;;;;;;15.73;9.18;;;;;;;19.09;10.89;102485.69;5357567;32;34692;-71
2022/03/21 13:18:35;;;;;;;19.37;8.38;;;;;;;21.55;9.94;102477.75;5368492;32;34254;-76
2022/03/21 13:21:37;;;;;;;12.77;8.05;;;;;;;24.24;8.41;102458.62;5372815;32;35093;-65
2022/03/21 13:24:49;;;;;;;14.87;7.95;;;;;;;23.97;8.49;102461.25;5367341;32;34301;-72
2022/03/21 13:28:04;;;;;;;15.23;8.07;;;;;;;26.72;6.81;102448.56;5373984;32;34204;-72
2022/03/21 13:31:09;;;;;;;15.98;8.40;;;;;;;29.07;5.80;102441.53;5369247;32;36302;-68
2022/03/21 13:34:12;;;;;;;12.57;7.70;;;;;;;24.39;7.43;102464.84;5374881;32;33801;-76
2022/03/21 13:37:16;;;;;;;12.95;7.70;;;;;;;22.24;8.48;102466.06;5371436;32;34224;-65
2022/03/21 13:40:19;;;;;;;13.88;8.52;;;;;;;25.31;7.12;102446.16;5365668;32;34071;-71
2022/03/21 13:43:28;;;;;;;17.15;8.35;;;;;;;19.69;10.29;102462.69;5363806;32;34142;-73
2022/03/21 13:46:31;;;;;;;13.40;7.50;;;;;;;20.36;10.10;102458.75;5361108;32;44536;-66
2022/03/21 13:49:48;;;;;;;13.38;8.05;;;;;;;20.17;10.12;102445.38;5376688;32;35545;-73
2022/03/21 13:52:53;;;;;;;13.43;7.90;;;;;;;18.06;11.48;102456.91;5365690;32;34011;-73
2022/03/21 13:55:57;;;;;;;11.55;7.30;;;;;;;16.57;12.74;102455.78;5356252;32;34256;-74
2022/03/21 13:59:15;;;;;;;14.82;7.80;;;;;;;16.68;12.79;102440.41;5359748;32;44368;-74
2022/03/21 14:02:18;;;;;;;17.70;8.00;;;;;;;17.29;12.35;102438.38;5363068;32;34721;-65
2022/03/21 14:05:27;;;;;;;14.30;8.05;;;;;;;15.60;13.45;102444.47;5375036;32;34062;-65
2022/03/21 14:08:35;;;;;;;13.37;7.47;;;;;;;16.25;13.05;102446.16;5364118;32;44086;-66
2022/03/21 14:11:38;;;;;;;19.43;7.87;;;;;;;15.95;13.41;102435.53;5370227;32;35449;-66
2022/03/21 14:14:40;;;;;;;13.20;7.27;;;;;;;16.32;12.86;102438.88;5357519;32;34110;-67
2022/03/21 14:17:45;;;;;;;12.65;7.18;;;;;;;16.56;12.30;102438.12;5363665;32;34560;-67
2022/03/21 14:20:47;;;;;;;12.63;6.87;;;;;;;15.51;13.00;102435.88;5376419;32;34545;-68
2022/03/21 14:23:50;;;;;;;13.60;7.00;;;;;;;14.96;13.51;102432.91;5362817;32;35167;-70
2022/03/21 14:26:53;;;;;;;19.17;7.70;;;;;;;15.18;13.22;102423.50;5374734;32;34126;-66
2022/03/21 14:29:55;;;;;;;14.33;7.70;;;;;;;14.26;13.98;102434.53;5367909;32;35286;-72
2022/03/21 14:32:57;;;;;;;11.73;6.80;;;;;;;14.93;13.67;102424.16;5371288;32;43463;-73
2022/03/21 14:36:00;;;;;;;10.95;6.65;;;;;;;14.51;13.64;102426.94;5376478;32;35163;-67